Observations for JERSEY AIRPORT, United Kingdom (EGJJ)

EGJJ 211750Z 25024KT 0400 R26/0500 -DZ FG BKN000 OVC001 10/10 Q1013 
EGJJ 211720Z 25024KT 0400 R26/0450 -DZ FG BKN000 OVC001 10/10 Q1013 
EGJJ 211650Z 25022KT 0400 R26/0650 -DZ FG BKN000 OVC001 10/10 Q1013 
EGJJ 211620Z 25021G32KT 0400 R26/1000 FG BKN000 OVC001 10/10 Q1014  
EGJJ 211550Z 26021KT 0500 R26/1600 -DZ FG BKN000 OVC001 10/10 Q1014 
EGJJ 211520Z 26022KT 1200 R26/1900 -DZ VCFG BKN000 OVC001 10/10 Q1014   
EGJJ 211450Z 25021KT 1000 R26/0900 -DZ BCFG SCT000 OVC001 10/10 Q1014   
EGJJ 211420Z 26020KT 0500 0350 R26/1400 FG BKN000 OVC001 10/10 Q1014
EGJJ 211350Z 25023KT 4000 -DZ VCFG SCT000 SCT001 OVC003 11/11 Q1014 
EGJJ 211320Z 26021KT 0200 R26/0400 -DZ FG OVC000 11/11 Q1014
EGJJ 211250Z 26021KT 0200 R26/0200 -DZ FG OVC000 11/11 Q1014
EGJJ 211220Z 26020KT 0200 R26/0225 -DZ FG OVC000 11/11 Q1014
EGJJ 211150Z 26019KT 0300 R26/0250 -DZ FG OVC000 10/10 Q1015
EGJJ 211120Z 26021G31KT 3000 -DZ BR SCT001 BKN002 10/10 Q1015   
EGJJ 211050Z 26021KT 0500 R26/1500 -DZ FG BKN000 10/10 Q1015
EGJJ 211020Z 26022KT 0300 R26/0400 -DZ FG OVC000 10/10 Q1014
EGJJ 210950Z 26020KT 0400 R26/0500 -DZ FG OVC002 10/10 Q1014
EGJJ 210920Z 26017KT 0300 R26/0275 -DZ FG OVC000 10/10 Q1014
EGJJ 210850Z 24014KT 0200 R26/0250 -DZ FG OVC000 10/10 Q1014
EGJJ 210820Z 22009KT 190V250 1200 R26/1000 -DZ FG BKN000 09/09 Q1015
EGJJ 210750Z 22007KT 0900 R26/1200 -DZ FG FEW000 BKN002 08/08 Q1015 
EGJJ 210720Z 21006KT 0700 R26/1100 -DZ FG FEW000 BKN002 09/09 Q1015 
EGJJ 210620Z 24004KT 2000 -RA BR FEW001 BKN003 08/08 Q1015  
EGJJ 210550Z 27003KT 6000 -RA FEW004 BKN006 08/08 Q1015 REDZ
EGJJ 210520Z AUTO 29004KT 3000 -RA FEW014/// SCT017/// BKN020/// 08/08 Q1015 REDZ   
EGJJ 210450Z AUTO 30007KT 9999 -RA FEW011/// SCT018/// OVC020/// 08/08 Q1015 RESHRA 
EGJJ 210420Z AUTO 28007KT 4700 RA FEW008/// SCT011/// BKN016/// 09/08 Q1015 RESHRA  
EGJJ 210350Z AUTO 27003KT 5000 -DZ SCT012/// BKN015/// BKN017/// 09/08 Q1015 RERA   
EGJJ 210320Z AUTO 30005KT 8000 FEW019/// SCT031/// OVC040/// 09/08 Q1014 RERA   
EGJJ 210250Z AUTO 30008KT CAVOK 09/08 Q1015 
EGJJ 210220Z AUTO 30008KT CAVOK 09/08 Q1015 
EGJJ 210150Z AUTO 30009KT CAVOK 09/08 Q1014 
EGJJ 210120Z AUTO 30011KT 270V330 CAVOK 09/08 Q1014 
EGJJ 210050Z AUTO 31010KT CAVOK 09/08 Q1014 
EGJJ 210020Z AUTO 30014KT CAVOK 09/07 Q1013 
EGJJ 202350Z AUTO 30016KT CAVOK 10/08 Q1012 
EGJJ 202320Z AUTO 30017KT 9999 BKN041/// 10/08 Q1012
EGJJ 202250Z AUTO 29017KT 9000 FEW019/// SCT022/// OVC041/// 10/08 Q1011
EGJJ 202220Z AUTO 29017KT 9999 SCT021/// BKN024/// BKN043/// 10/08 Q1011
EGJJ 202150Z 29017KT 9999 SCT019 10/08 Q1010
EGJJ 202120Z 29018KT 9999 SCT021 10/08 Q1010
EGJJ 202050Z 29018KT 9999 FEW020 BKN025 10/08 Q1009 
EGJJ 202020Z 30017G29KT 9999 FEW010 BKN034 10/08 Q1009  
EGJJ 201950Z 30018G28KT 9999 FEW010 BKN034 10/08 Q1008  
EGJJ 201920Z 29021G32KT 9999 FEW010 SCT023 10/09 Q1007  
EGJJ 201850Z 29022G32KT 9999 FEW010 SCT023 10/10 Q1006  
EGJJ 201820Z 29020KT 9999 FEW018 10/10 Q1006
EGJJ 201750Z 29021KT 9999 FEW009 SCT016 10/10 Q1004 
EGJJ 201720Z 29022G35KT 9999 FEW009 SCT016 11/10 Q1004